Aviation Digital Data Service (ADDS)

Output produced by METARs form (1404 UTC 19 January 2019)
found at http://www.aviationweather.gov/metar/data/
 
Forecast for: UGTB (TBILISI/NOVO-AL , GE)
Text: TAF UGTB 191100Z 1912/2012 30012KT CAVOK TX10/1912Z TNM01/2003Z
Forecast period: 1200 UTC 19 January 2019 to 1200 UTC 20 January 2019
Forecast type: FROM: standard forecast or significant change
Winds: from the WNW (300 degrees) at 14 MPH (12 knots; 6.2 m/s)
Visibility: 6 or more miles 10+ km)
Ceiling: unknown
Clouds: missing
Weather: no significant weather forecast for this period